Time;durP1;ratioP1;P1;durP2;ratioP2;P2;SDS_P1;SDS_P2;PMS_P1;PMS_P2;Temp;Humidity;BMP_temperature;BMP_pressure;BME280_temperature;BME280_humidity;BME280_pressure;Samples;Min_cycle;Max_cycle;Signal;HPM_P1;HPM_P2
2021/08/14 00:00:23;;;;;;;;;;;23.60;56.70;;;;;;3098940;28;19984;-76
2021/08/14 00:01:54;;;;;;;;;;;23.60;56.60;;;;;;3097751;28;19928;-77
2021/08/14 00:03:26;;;;;;;;;;;23.70;56.50;;;;;;3097336;28;19929;-76
2021/08/14 00:04:58;;;;;;;;;;;23.70;56.40;;;;;;3097282;28;20267;-76
2021/08/14 00:06:29;;;;;;;;;;;23.70;56.30;;;;;;3101246;28;20061;-77
2021/08/14 00:08:01;;;;;;;;;;;23.80;56.30;;;;;;3109615;28;20370;-76
2021/08/14 00:09:34;;;;;;;;;;;23.80;56.80;;;;;;3109915;28;19921;-76
2021/08/14 00:11:06;;;;;;;;;;;23.80;56.20;;;;;;3109676;28;19980;-76
2021/08/14 00:12:38;;;;;;;;;;;23.80;56.20;;;;;;3109343;28;19925;-76
2021/08/14 00:14:09;;;;;;;;;;;23.80;56.20;;;;;;3112317;28;20336;-76
2021/08/14 00:15:41;;;;;;;;;;;23.80;56.20;;;;;;3121325;28;20374;-76
2021/08/14 00:17:11;;;;;;;;;;;23.80;56.10;;;;;;3101239;28;19922;-76
2021/08/14 00:18:43;;;;;;;;;;;23.70;56.20;;;;;;3102404;28;20320;-77
2021/08/14 00:20:15;;;;;;;;;;;23.60;56.40;;;;;;3110104;28;19928;-76
2021/08/14 00:21:46;;;;;;;;;;;23.60;56.60;;;;;;3109974;28;19921;-76
2021/08/14 00:23:18;;;;;;;;;;;23.50;56.60;;;;;;3109469;28;20286;-76
2021/08/14 00:24:51;;;;;;;;;;;23.50;56.80;;;;;;3109611;28;19925;-76
2021/08/14 00:26:22;;;;;;;;;;;23.50;56.70;;;;;;3109739;28;19964;-75
2021/08/14 00:27:54;;;;;;;;;;;23.50;56.60;;;;;;3109484;28;19921;-77
2021/08/14 00:29:26;;;;;;;;;;;23.60;56.70;;;;;;3109809;28;19925;-76
2021/08/14 00:30:58;;;;;;;;;;;23.60;56.70;;;;;;3109138;28;19925;-76
2021/08/14 00:32:29;;;;;;;;;;;23.60;56.60;;;;;;3107428;28;19928;-76
2021/08/14 00:34:01;;;;;;;;;;;23.60;56.50;;;;;;3097058;28;19937;-75
2021/08/14 00:35:32;;;;;;;;;;;23.60;56.40;;;;;;3097632;28;19921;-76
2021/08/14 00:37:04;;;;;;;;;;;23.70;56.40;;;;;;3097303;28;19921;-77
2021/08/14 00:38:36;;;;;;;;;;;23.70;56.30;;;;;;3097868;28;19973;-76
2021/08/14 00:40:09;;;;;;;;;;;23.70;56.20;;;;;;3097815;28;19937;-75
2021/08/14 00:41:41;;;;;;;;;;;23.80;56.30;;;;;;3107257;28;20243;-75
2021/08/14 00:43:13;;;;;;;;;;;23.80;56.30;;;;;;3109281;28;19971;-76
2021/08/14 00:44:44;;;;;;;;;;;23.70;56.20;;;;;;3109201;28;19929;-77
2021/08/14 00:46:16;;;;;;;;;;;23.80;56.20;;;;;;3108744;28;19929;-76
2021/08/14 00:47:47;;;;;;;;;;;23.70;56.20;;;;;;3099753;28;20011;-76
2021/08/14 00:49:19;;;;;;;;;;;23.70;56.30;;;;;;3097583;28;19945;-76
2021/08/14 00:50:50;;;;;;;;;;;23.60;56.30;;;;;;3097555;28;20000;-76
2021/08/14 00:52:22;;;;;;;;;;;23.70;56.30;;;;;;3096957;28;19929;-76
2021/08/14 00:53:53;;;;;;;;;;;23.60;56.30;;;;;;3097364;28;20611;-76
2021/08/14 00:55:26;;;;;;;;;;;23.60;56.20;;;;;;3097513;28;20318;-76
2021/08/14 00:56:58;;;;;;;;;;;23.60;56.30;;;;;;3097263;28;19929;-76
2021/08/14 00:58:29;;;;;;;;;;;23.60;56.40;;;;;;3097062;28;19933;-77
2021/08/14 01:00:01;;;;;;;;;;;23.60;56.40;;;;;;3097887;28;19929;-76
2021/08/14 01:01:33;;;;;;;;;;;23.60;56.40;;;;;;3102934;28;19952;-77
2021/08/14 01:03:05;;;;;;;;;;;23.60;56.30;;;;;;3109190;28;19976;-76
2021/08/14 01:04:36;;;;;;;;;;;23.70;56.30;;;;;;3109122;28;19944;-75
2021/08/14 01:06:07;;;;;;;;;;;23.70;56.40;;;;;;3109855;28;20297;-76
2021/08/14 01:07:38;;;;;;;;;;;23.60;56.30;;;;;;3109032;28;19967;-75
2021/08/14 01:09:10;;;;;;;;;;;23.70;56.30;;;;;;3109264;28;19921;-76
2021/08/14 01:10:43;;;;;;;;;;;23.60;56.20;;;;;;3109352;28;20385;-76
2021/08/14 01:12:15;;;;;;;;;;;23.60;56.20;;;;;;3108665;28;19928;-75
2021/08/14 01:13:47;;;;;;;;;;;23.60;56.30;;;;;;3109440;28;20377;-76
2021/08/14 01:15:19;;;;;;;;;;;23.50;56.20;;;;;;3106786;28;20439;-76
2021/08/14 01:16:50;;;;;;;;;;;23.50;56.40;;;;;;3100137;28;20289;-76
2021/08/14 01:18:22;;;;;;;;;;;23.50;56.50;;;;;;3100886;28;19925;-76
2021/08/14 01:19:53;;;;;;;;;;;23.50;56.60;;;;;;3112071;28;19922;-76
2021/08/14 01:21:25;;;;;;;;;;;23.50;56.70;;;;;;3112028;28;19927;-75
2021/08/14 01:22:57;;;;;;;;;;;23.50;56.60;;;;;;3111555;28;19921;-76
2021/08/14 01:24:28;;;;;;;;;;;23.50;56.60;;;;;;3111338;28;19925;-76
2021/08/14 01:26:02;;;;;;;;;;;23.50;56.50;;;;;;3111754;28;19922;-76
2021/08/14 01:27:35;;;;;;;;;;;23.50;56.50;;;;;;3111346;28;19922;-75
2021/08/14 01:29:07;;;;;;;;;;;23.60;56.50;;;;;;3111257;28;19940;-76
2021/08/14 01:30:39;;;;;;;;;;;23.60;56.50;;;;;;3111076;28;19921;-77
2021/08/14 01:32:10;;;;;;;;;;;23.50;56.50;;;;;;3111410;28;20298;-76
2021/08/14 01:33:42;;;;;;;;;;;23.40;56.50;;;;;;3111806;28;19921;-76
2021/08/14 01:35:14;;;;;;;;;;;23.40;56.70;;;;;;3111296;28;20302;-75
2021/08/14 01:36:46;;;;;;;;;;;23.30;56.80;;;;;;3111782;28;20362;-77
2021/08/14 01:38:17;;;;;;;;;;;23.30;57.00;;;;;;3111172;28;19929;-76
2021/08/14 01:39:49;;;;;;;;;;;23.20;57.00;;;;;;3111942;28;19921;-76
2021/08/14 01:41:21;;;;;;;;;;;23.20;57.20;;;;;;3111503;28;19925;-76
2021/08/14 01:42:54;;;;;;;;;;;23.10;57.30;;;;;;3111031;28;19993;-76
2021/08/14 01:44:25;;;;;;;;;;;23.10;57.40;;;;;;3100223;28;20386;-76
2021/08/14 01:45:57;;;;;;;;;;;23.10;57.40;;;;;;3098947;28;20290;-76
2021/08/14 01:47:28;;;;;;;;;;;23.10;57.40;;;;;;3098893;28;20405;-76
2021/08/14 01:49:00;;;;;;;;;;;23.00;57.40;;;;;;3099386;28;19922;-76
2021/08/14 01:50:32;;;;;;;;;;;23.10;57.50;;;;;;3102950;28;19929;-76
2021/08/14 01:52:11;;;;;;;;;;;23.10;57.50;;;;;;3110771;28;19927;-76
2021/08/14 01:53:45;;;;;;;;;;;23.10;57.40;;;;;;3111476;28;19921;-76
2021/08/14 01:55:17;;;;;;;;;;;23.10;57.40;;;;;;3111188;28;19926;-76
2021/08/14 01:56:49;;;;;;;;;;;23.00;57.40;;;;;;3111462;28;19925;-77
2021/08/14 01:58:22;;;;;;;;;;;23.10;57.50;;;;;;3111136;28;19925;-76
2021/08/14 01:59:53;;;;;;;;;;;23.10;57.40;;;;;;3111511;28;19922;-76
2021/08/14 02:01:25;;;;;;;;;;;23.10;57.30;;;;;;3110696;28;19921;-75
2021/08/14 02:02:58;;;;;;;;;;;23.10;57.40;;;;;;3110845;28;19941;-76
2021/08/14 02:04:29;;;;;;;;;;;23.10;57.30;;;;;;3109644;28;20017;-76
2021/08/14 02:06:02;;;;;;;;;;;23.10;57.30;;;;;;3111471;28;19921;-76
2021/08/14 02:07:33;;;;;;;;;;;23.10;57.10;;;;;;3110875;28;20048;-75
2021/08/14 02:09:05;;;;;;;;;;;23.10;57.20;;;;;;3111776;28;20268;-76
2021/08/14 02:10:36;;;;;;;;;;;23.00;57.90;;;;;;3110600;28;20286;-77
2021/08/14 02:12:08;;;;;;;;;;;23.00;57.40;;;;;;3110711;28;19932;-76
2021/08/14 02:13:40;;;;;;;;;;;23.00;57.40;;;;;;3111099;28;19928;-75
2021/08/14 02:15:12;;;;;;;;;;;23.00;57.50;;;;;;3110315;28;19921;-77
2021/08/14 02:16:43;;;;;;;;;;;22.90;57.60;;;;;;3111178;28;19929;-76
2021/08/14 02:18:15;;;;;;;;;;;22.90;57.60;;;;;;3111016;28;19922;-76
2021/08/14 02:19:46;;;;;;;;;;;22.90;57.70;;;;;;3120307;28;19924;-76
2021/08/14 02:21:18;;;;;;;;;;;22.90;57.60;;;;;;3123866;28;20430;-76
2021/08/14 02:22:50;;;;;;;;;;;22.90;57.60;;;;;;3122842;28;19927;-77
2021/08/14 02:24:21;;;;;;;;;;;22.90;57.60;;;;;;3122954;28;20290;-75
2021/08/14 02:25:52;;;;;;;;;;;22.80;57.60;;;;;;3115508;28;20389;-76
2021/08/14 02:27:23;;;;;;;;;;;22.80;57.60;;;;;;3112280;28;19917;-76
2021/08/14 02:28:56;;;;;;;;;;;22.90;57.60;;;;;;3111144;28;19921;-76
2021/08/14 02:30:28;;;;;;;;;;;22.90;57.50;;;;;;3110441;28;19921;-77
2021/08/14 02:32:00;;;;;;;;;;;23.00;57.40;;;;;;3111380;28;19921;-77
2021/08/14 02:33:30;;;;;;;;;;;23.10;57.30;;;;;;3101486;28;19921;-76
2021/08/14 02:35:02;;;;;;;;;;;23.10;57.00;;;;;;3098465;28;20004;-76
2021/08/14 02:36:34;;;;;;;;;;;23.20;56.90;;;;;;3098977;28;20299;-76
2021/08/14 02:38:06;;;;;;;;;;;23.20;56.80;;;;;;3098616;28;19945;-76
2021/08/14 02:39:37;;;;;;;;;;;23.30;56.80;;;;;;3098957;28;19944;-75
2021/08/14 02:41:09;;;;;;;;;;;23.20;56.80;;;;;;3106890;28;20509;-76
2021/08/14 02:42:43;;;;;;;;;;;23.30;56.70;;;;;;3110521;28;19925;-77
2021/08/14 02:44:16;;;;;;;;;;;23.20;56.70;;;;;;3110754;28;19921;-76
2021/08/14 02:45:48;;;;;;;;;;;23.20;56.80;;;;;;3110101;28;19992;-76
2021/08/14 02:47:19;;;;;;;;;;;23.10;56.90;;;;;;3104144;28;19921;-75
2021/08/14 02:48:51;;;;;;;;;;;23.00;57.10;;;;;;3098862;28;19926;-77
2021/08/14 02:50:22;;;;;;;;;;;23.00;57.20;;;;;;3099140;28;19977;-76
2021/08/14 02:51:54;;;;;;;;;;;23.00;57.20;;;;;;3101681;28;19921;-76
2021/08/14 02:53:25;;;;;;;;;;;23.00;57.20;;;;;;3110234;28;19921;-75
2021/08/14 02:54:56;;;;;;;;;;;23.00;57.30;;;;;;3110451;28;19921;-76
2021/08/14 02:56:28;;;;;;;;;;;22.90;57.80;;;;;;3111085;28;19925;-76
2021/08/14 02:58:00;;;;;;;;;;;22.80;57.40;;;;;;3110239;28;19928;-76
2021/08/14 02:59:33;;;;;;;;;;;22.80;57.40;;;;;;3110991;28;19921;-76
2021/08/14 03:01:03;;;;;;;;;;;22.80;57.40;;;;;;3106491;28;19922;-75
2021/08/14 03:02:35;;;;;;;;;;;22.80;57.40;;;;;;3098219;28;19930;-76
2021/08/14 03:04:06;;;;;;;;;;;22.70;57.50;;;;;;3097986;28;20298;-76
2021/08/14 03:05:38;;;;;;;;;;;22.70;57.40;;;;;;3098385;28;19930;-76
2021/08/14 03:07:10;;;;;;;;;;;22.80;57.50;;;;;;3098272;28;19921;-77
2021/08/14 03:08:41;;;;;;;;;;;22.80;57.40;;;;;;3098589;28;19922;-76
2021/08/14 03:10:12;;;;;;;;;;;22.90;57.30;;;;;;3098789;28;19922;-76
2021/08/14 03:11:43;;;;;;;;;;;22.90;57.10;;;;;;3110362;28;19923;-76
2021/08/14 03:13:15;;;;;;;;;;;22.90;57.10;;;;;;3110129;28;19928;-76
2021/08/14 03:14:48;;;;;;;;;;;22.80;57.20;;;;;;3109598;28;19922;-75
2021/08/14 03:16:19;;;;;;;;;;;22.80;57.30;;;;;;3097427;28;19929;-75
2021/08/14 03:17:53;;;;;;;;;;;22.80;57.40;;;;;;3097895;28;20390;-75
2021/08/14 03:19:24;;;;;;;;;;;22.80;57.40;;;;;;3108680;28;19921;-77
2021/08/14 03:20:56;;;;;;;;;;;22.80;57.50;;;;;;3110814;28;19975;-76
2021/08/14 03:22:27;;;;;;;;;;;22.70;57.40;;;;;;3110151;28;19952;-76
2021/08/14 03:23:59;;;;;;;;;;;22.70;57.50;;;;;;3110315;28;19925;-76
2021/08/14 03:25:30;;;;;;;;;;;22.70;57.50;;;;;;3110748;28;19921;-76
2021/08/14 03:27:02;;;;;;;;;;;22.70;57.40;;;;;;3110103;28;19921;-78
2021/08/14 03:28:34;;;;;;;;;;;22.80;57.30;;;;;;3110616;28;19921;-76
2021/08/14 03:30:08;;;;;;;;;;;22.90;57.10;;;;;;3100111;28;19975;-77
2021/08/14 03:31:39;;;;;;;;;;;22.90;57.00;;;;;;3098227;28;19953;-76
2021/08/14 03:33:11;;;;;;;;;;;22.90;56.90;;;;;;3097719;28;19921;-76
2021/08/14 03:34:42;;;;;;;;;;;22.90;56.90;;;;;;3097670;28;20417;-76
2021/08/14 03:36:14;;;;;;;;;;;22.90;57.00;;;;;;3098572;28;19922;-75
2021/08/14 03:37:44;;;;;;;;;;;22.80;57.00;;;;;;3096926;28;19922;-76
2021/08/14 03:39:16;;;;;;;;;;;22.80;57.10;;;;;;3098292;28;19917;-76
2021/08/14 03:40:47;;;;;;;;;;;22.80;57.20;;;;;;3103294;28;19925;-76
2021/08/14 03:42:19;;;;;;;;;;;22.70;57.30;;;;;;3110005;28;19925;-76
2021/08/14 03:43:51;;;;;;;;;;;22.70;57.40;;;;;;3102787;28;19922;-75
2021/08/14 03:45:24;;;;;;;;;;;22.70;57.40;;;;;;3097277;28;19937;-75
2021/08/14 03:46:55;;;;;;;;;;;22.70;57.40;;;;;;3098490;28;19948;-75
2021/08/14 03:48:27;;;;;;;;;;;22.60;57.30;;;;;;3097608;28;19922;-76
2021/08/14 03:49:58;;;;;;;;;;;22.60;57.50;;;;;;3098342;28;20582;-76
2021/08/14 03:51:30;;;;;;;;;;;22.70;57.50;;;;;;3098263;28;19921;-76
2021/08/14 03:53:02;;;;;;;;;;;22.60;57.40;;;;;;3097954;28;19921;-76
2021/08/14 03:54:33;;;;;;;;;;;22.60;57.40;;;;;;3097779;28;19926;-77
2021/08/14 03:56:05;;;;;;;;;;;22.60;57.50;;;;;;3098253;28;19921;-77
2021/08/14 03:57:37;;;;;;;;;;;22.60;57.70;;;;;;3097595;28;19948;-77
2021/08/14 03:59:08;;;;;;;;;;;22.60;57.50;;;;;;3098388;28;19922;-76
2021/08/14 04:00:41;;;;;;;;;;;22.60;57.60;;;;;;3097449;28;19992;-76
2021/08/14 04:02:13;;;;;;;;;;;22.60;57.50;;;;;;3098748;28;20483;-76
2021/08/14 04:03:44;;;;;;;;;;;22.60;57.60;;;;;;3098092;28;20441;-78
2021/08/14 04:05:16;;;;;;;;;;;22.50;57.60;;;;;;3098163;28;19921;-77
2021/08/14 04:06:48;;;;;;;;;;;22.50;57.60;;;;;;3098291;28;20276;-77
2021/08/14 04:08:19;;;;;;;;;;;22.50;57.60;;;;;;3097510;28;20350;-77
2021/08/14 04:09:51;;;;;;;;;;;22.50;57.70;;;;;;3098154;28;19922;-76
2021/08/14 04:11:23;;;;;;;;;;;22.50;57.70;;;;;;3098266;28;19928;-77
2021/08/14 04:12:54;;;;;;;;;;;22.50;57.70;;;;;;3106472;28;19928;-76
2021/08/14 04:14:26;;;;;;;;;;;22.50;57.60;;;;;;3110069;28;19921;-77
2021/08/14 04:15:59;;;;;;;;;;;22.50;57.60;;;;;;3109729;28;19921;-76
2021/08/14 04:17:30;;;;;;;;;;;22.50;58.30;;;;;;3109092;28;20008;-76
2021/08/14 04:19:02;;;;;;;;;;;22.40;57.80;;;;;;3110318;28;20322;-77
2021/08/14 04:20:34;;;;;;;;;;;22.40;57.80;;;;;;3109984;28;19925;-76
2021/08/14 04:22:05;;;;;;;;;;;22.40;57.60;;;;;;3109714;28;19922;-76
2021/08/14 04:23:37;;;;;;;;;;;22.40;57.80;;;;;;3110096;28;19922;-77
2021/08/14 04:25:09;;;;;;;;;;;22.30;57.90;;;;;;3109972;28;19944;-78
2021/08/14 04:26:40;;;;;;;;;;;22.30;58.00;;;;;;3109909;28;19922;-78
2021/08/14 04:28:12;;;;;;;;;;;22.30;58.00;;;;;;3109859;28;19944;-76
2021/08/14 04:29:44;;;;;;;;;;;22.30;58.00;;;;;;3110062;28;19991;-76
2021/08/14 04:31:16;;;;;;;;;;;22.40;58.10;;;;;;3109349;28;19922;-76
2021/08/14 04:32:49;;;;;;;;;;;22.30;58.00;;;;;;3109697;28;19944;-76
2021/08/14 04:34:21;;;;;;;;;;;22.30;58.00;;;;;;3109931;28;19925;-77
2021/08/14 04:35:52;;;;;;;;;;;22.30;58.00;;;;;;3109873;28;19921;-76
2021/08/14 04:37:24;;;;;;;;;;;22.30;58.00;;;;;;3108848;28;19922;-76
2021/08/14 04:38:56;;;;;;;;;;;22.30;58.10;;;;;;3110142;28;20371;-76
2021/08/14 04:40:27;;;;;;;;;;;22.40;58.10;;;;;;3110031;28;19921;-77
2021/08/14 04:41:59;;;;;;;;;;;22.30;58.10;;;;;;3109888;28;20567;-76
2021/08/14 04:43:30;;;;;;;;;;;22.30;58.10;;;;;;3109274;28;19932;-76
2021/08/14 04:45:02;;;;;;;;;;;22.30;58.10;;;;;;3109850;28;20286;-77
2021/08/14 04:46:35;;;;;;;;;;;22.30;58.20;;;;;;3109302;28;19921;-77
2021/08/14 04:48:07;;;;;;;;;;;22.30;58.20;;;;;;3109515;28;19921;-76
2021/08/14 04:49:38;;;;;;;;;;;22.30;58.10;;;;;;3109946;28;19928;-76
2021/08/14 04:51:10;;;;;;;;;;;22.30;58.30;;;;;;3110012;28;19921;-77
2021/08/14 04:52:41;;;;;;;;;;;22.30;58.30;;;;;;3109602;28;19921;-76
2021/08/14 04:54:13;;;;;;;;;;;22.30;58.40;;;;;;3109405;28;19921;-76
2021/08/14 04:55:45;;;;;;;;;;;22.30;58.30;;;;;;3109799;28;19921;-76
2021/08/14 04:57:16;;;;;;;;;;;22.30;58.40;;;;;;3109770;28;19929;-76
2021/08/14 04:58:48;;;;;;;;;;;22.30;58.30;;;;;;3110031;28;19929;-76
2021/08/14 05:00:19;;;;;;;;;;;22.30;58.40;;;;;;3113753;28;20246;-76
2021/08/14 05:01:52;;;;;;;;;;;22.30;58.40;;;;;;3121640;28;19925;-76
2021/08/14 05:03:24;;;;;;;;;;;22.30;58.40;;;;;;3109485;28;19922;-76
2021/08/14 05:04:55;;;;;;;;;;;22.20;58.40;;;;;;3111003;28;20363;-75
2021/08/14 05:06:27;;;;;;;;;;;22.30;58.50;;;;;;3117255;28;20345;-76
2021/08/14 05:07:59;;;;;;;;;;;22.30;58.50;;;;;;3109802;28;20345;-77
2021/08/14 05:09:30;;;;;;;;;;;22.30;58.50;;;;;;3110301;28;19925;-76
2021/08/14 05:11:02;;;;;;;;;;;22.30;58.60;;;;;;3110309;28;19922;-76
2021/08/14 05:12:34;;;;;;;;;;;22.30;58.70;;;;;;3110356;28;19925;-76
2021/08/14 05:14:05;;;;;;;;;;;22.30;58.70;;;;;;3110709;28;19925;-76
2021/08/14 05:15:37;;;;;;;;;;;22.30;58.70;;;;;;3110002;28;19922;-78
2021/08/14 05:17:10;;;;;;;;;;;22.20;58.80;;;;;;3109619;28;19950;-76
2021/08/14 05:18:44;;;;;;;;;;;22.30;58.90;;;;;;3109769;28;19932;-76
2021/08/14 05:20:15;;;;;;;;;;;22.30;58.80;;;;;;3110080;28;19922;-76
2021/08/14 05:21:47;;;;;;;;;;;22.30;58.90;;;;;;3110006;28;19921;-76
2021/08/14 05:23:19;;;;;;;;;;;22.20;58.90;;;;;;3109115;28;19975;-76
2021/08/14 05:24:50;;;;;;;;;;;22.20;58.80;;;;;;3109674;28;19926;-76
2021/08/14 05:26:22;;;;;;;;;;;22.20;58.90;;;;;;3109803;28;19928;-76
2021/08/14 05:27:54;;;;;;;;;;;22.20;59.00;;;;;;3109315;28;19921;-77
2021/08/14 05:29:25;;;;;;;;;;;22.10;59.00;;;;;;3110053;28;19929;-76
2021/08/14 05:30:57;;;;;;;;;;;22.10;59.00;;;;;;3109066;28;19922;-76
2021/08/14 05:32:30;;;;;;;;;;;22.10;59.00;;;;;;3109412;28;19922;-76
2021/08/14 05:34:04;;;;;;;;;;;22.10;59.00;;;;;;3109341;28;19922;-75
2021/08/14 05:35:36;;;;;;;;;;;22.10;59.10;;;;;;3109798;28;20413;-77
2021/08/14 05:37:07;;;;;;;;;;;22.10;59.10;;;;;;3109580;28;20286;-76
2021/08/14 05:38:39;;;;;;;;;;;22.10;59.10;;;;;;3109713;28;20255;-76
2021/08/14 05:40:10;;;;;;;;;;;22.10;59.00;;;;;;3109594;28;19995;-77
2021/08/14 05:41:44;;;;;;;;;;;22.10;59.10;;;;;;3109446;28;20014;-75
2021/08/14 05:43:16;;;;;;;;;;;22.20;59.00;;;;;;3109194;28;19926;-77
2021/08/14 05:44:47;;;;;;;;;;;22.10;59.30;;;;;;3108861;28;19921;-76
2021/08/14 05:46:18;;;;;;;;;;;22.10;59.10;;;;;;3108766;28;19922;-76
2021/08/14 05:47:51;;;;;;;;;;;22.10;59.20;;;;;;3108781;28;20052;-75
2021/08/14 05:49:23;;;;;;;;;;;22.10;59.20;;;;;;3109573;28;19995;-77
2021/08/14 05:50:54;;;;;;;;;;;22.20;59.20;;;;;;3101065;28;19948;-75
2021/08/14 05:52:26;;;;;;;;;;;22.10;59.20;;;;;;3097096;28;19928;-76
2021/08/14 05:53:57;;;;;;;;;;;22.10;59.20;;;;;;3097278;28;20330;-76
2021/08/14 05:55:29;;;;;;;;;;;22.10;59.30;;;;;;3097186;28;19922;-77
2021/08/14 05:57:01;;;;;;;;;;;22.10;59.30;;;;;;3097136;28;20166;-77
2021/08/14 05:58:32;;;;;;;;;;;22.10;59.40;;;;;;3096506;28;19929;-77
2021/08/14 06:00:04;;;;;;;;;;;22.10;59.40;;;;;;3108531;28;19921;-76
2021/08/14 06:01:36;;;;;;;;;;;22.00;59.40;;;;;;3110951;28;19972;-76
2021/08/14 06:03:09;;;;;;;;;;;22.10;59.50;;;;;;3110749;28;19980;-76
2021/08/14 06:04:40;;;;;;;;;;;22.10;59.50;;;;;;3110167;28;19921;-76
2021/08/14 06:06:12;;;;;;;;;;;22.10;59.50;;;;;;3111087;28;20017;-76
2021/08/14 06:07:43;;;;;;;;;;;22.10;59.50;;;;;;3110295;28;19928;-76
2021/08/14 06:09:15;;;;;;;;;;;22.10;59.50;;;;;;3111039;28;19922;-75
2021/08/14 06:10:47;;;;;;;;;;;22.10;59.50;;;;;;3110405;28;19980;-76
2021/08/14 06:12:18;;;;;;;;;;;22.20;59.50;;;;;;3111205;28;19948;-76
2021/08/14 06:13:50;;;;;;;;;;;22.10;59.40;;;;;;3110813;28;20345;-77
2021/08/14 06:15:21;;;;;;;;;;;22.00;59.50;;;;;;3110352;28;20387;-75
2021/08/14 06:16:53;;;;;;;;;;;22.10;59.50;;;;;;3111073;28;20321;-76
2021/08/14 06:18:26;;;;;;;;;;;22.10;59.50;;;;;;3108025;28;19926;-76
2021/08/14 06:19:57;;;;;;;;;;;22.10;59.50;;;;;;3099170;28;19926;-76
2021/08/14 06:21:29;;;;;;;;;;;22.10;59.60;;;;;;3099425;28;20398;-76
2021/08/14 06:23:01;;;;;;;;;;;22.10;59.60;;;;;;3100269;28;19925;-75
2021/08/14 06:24:32;;;;;;;;;;;22.10;59.60;;;;;;3110290;28;20390;-75
2021/08/14 06:26:04;;;;;;;;;;;22.00;59.60;;;;;;3110589;28;19928;-75
2021/08/14 06:27:36;;;;;;;;;;;22.10;59.70;;;;;;3110283;28;19921;-75
2021/08/14 06:29:07;;;;;;;;;;;22.10;59.60;;;;;;3111213;28;19925;-75
2021/08/14 06:30:39;;;;;;;;;;;22.10;59.60;;;;;;3110092;28;19928;-76
2021/08/14 06:32:11;;;;;;;;;;;22.10;59.60;;;;;;3109341;28;19925;-74
2021/08/14 06:33:43;;;;;;;;;;;22.10;59.60;;;;;;3110672;28;20275;-75
2021/08/14 06:35:15;;;;;;;;;;;22.10;59.60;;;;;;3110665;28;19948;-75
2021/08/14 06:36:46;;;;;;;;;;;22.10;59.60;;;;;;3110580;28;19952;-75
2021/08/14 06:38:18;;;;;;;;;;;22.10;59.60;;;;;;3110187;28;20382;-75
2021/08/14 06:39:50;;;;;;;;;;;22.10;59.60;;;;;;3111261;28;19928;-76
2021/08/14 06:41:21;;;;;;;;;;;22.10;59.60;;;;;;3110491;28;19937;-75
2021/08/14 06:42:53;;;;;;;;;;;22.10;59.70;;;;;;3109638;28;19922;-76
2021/08/14 06:44:24;;;;;;;;;;;22.20;59.70;;;;;;3110734;28;19928;-76
2021/08/14 06:45:56;;;;;;;;;;;22.10;59.70;;;;;;3110334;28;19921;-76
2021/08/14 06:47:27;;;;;;;;;;;22.10;59.80;;;;;;3109355;28;20064;-75
2021/08/14 06:49:03;;;;;;;;;;;22.10;59.80;;;;;;3110780;28;19953;-76
2021/08/14 06:50:34;;;;;;;;;;;22.10;59.80;;;;;;3108817;28;19926;-76
2021/08/14 06:52:06;;;;;;;;;;;22.10;59.70;;;;;;3109943;28;19922;-76
2021/08/14 06:53:38;;;;;;;;;;;22.20;59.70;;;;;;3110706;28;19925;-75
2021/08/14 06:55:09;;;;;;;;;;;22.10;59.80;;;;;;3110500;28;19921;-76
2021/08/14 06:56:41;;;;;;;;;;;22.10;59.80;;;;;;3110757;28;20539;-76
2021/08/14 06:58:12;;;;;;;;;;;22.10;59.80;;;;;;3110419;28;20318;-76
2021/08/14 06:59:44;;;;;;;;;;;22.20;59.80;;;;;;3110720;28;20286;-76
2021/08/14 07:01:16;;;;;;;;;;;22.10;59.70;;;;;;3110095;28;20382;-76
2021/08/14 07:02:47;;;;;;;;;;;22.20;59.80;;;;;;3109219;28;20436;-76
2021/08/14 07:04:20;;;;;;;;;;;22.10;59.80;;;;;;3098468;28;19929;-75
2021/08/14 07:05:51;;;;;;;;;;;22.20;59.80;;;;;;3098345;28;19926;-76
2021/08/14 07:07:23;;;;;;;;;;;22.10;59.70;;;;;;3098019;28;19976;-76
2021/08/14 07:08:55;;;;;;;;;;;22.20;59.70;;;;;;3098789;28;19922;-76
2021/08/14 07:10:26;;;;;;;;;;;22.20;59.70;;;;;;3103871;28;19921;-75
2021/08/14 07:11:58;;;;;;;;;;;22.20;59.70;;;;;;3110271;28;19925;-76
2021/08/14 07:13:29;;;;;;;;;;;22.20;59.60;;;;;;3110208;28;20616;-76
2021/08/14 07:15:01;;;;;;;;;;;22.30;59.40;;;;;;3110516;28;20398;-76
2021/08/14 07:16:32;;;;;;;;;;;22.30;59.50;;;;;;3109743;28;19991;-76
2021/08/14 07:18:04;;;;;;;;;;;22.30;59.50;;;;;;3109890;28;20301;-76
2021/08/14 07:19:37;;;;;;;;;;;22.40;59.50;;;;;;3109877;28;19991;-75
2021/08/14 07:21:08;;;;;;;;;;;22.40;59.50;;;;;;3110717;28;19925;-76
2021/08/14 07:22:40;;;;;;;;;;;22.40;59.40;;;;;;3109960;28;19972;-76
2021/08/14 07:24:12;;;;;;;;;;;22.40;59.30;;;;;;3110007;28;19926;-75
2021/08/14 07:25:44;;;;;;;;;;;22.40;59.20;;;;;;3110402;28;19921;-76
2021/08/14 07:27:15;;;;;;;;;;;22.40;59.20;;;;;;3110234;28;19925;-75
2021/08/14 07:28:47;;;;;;;;;;;22.30;59.20;;;;;;3110500;28;19922;-76
2021/08/14 07:30:18;;;;;;;;;;;22.40;59.20;;;;;;3109320;28;19952;-75
2021/08/14 07:31:50;;;;;;;;;;;22.40;59.10;;;;;;3110397;28;19922;-76
2021/08/14 07:33:21;;;;;;;;;;;22.40;59.10;;;;;;3099905;28;19926;-75
2021/08/14 07:34:55;;;;;;;;;;;22.50;59.10;;;;;;3097641;28;20371;-75
2021/08/14 07:36:26;;;;;;;;;;;22.40;59.00;;;;;;3098166;28;19926;-76
2021/08/14 07:37:58;;;;;;;;;;;22.40;59.00;;;;;;3097560;28;19921;-75
2021/08/14 07:39:29;;;;;;;;;;;22.40;58.80;;;;;;3098060;28;20298;-75
2021/08/14 07:41:01;;;;;;;;;;;22.40;58.80;;;;;;3104990;28;19952;-76
2021/08/14 07:42:35;;;;;;;;;;;22.40;58.90;;;;;;3109781;28;20298;-76
2021/08/14 07:44:06;;;;;;;;;;;22.50;58.90;;;;;;3109886;28;19925;-76
2021/08/14 07:45:38;;;;;;;;;;;22.40;58.90;;;;;;3109540;28;19922;-75
2021/08/14 07:47:10;;;;;;;;;;;22.50;58.90;;;;;;3109523;28;19925;-76
2021/08/14 07:48:41;;;;;;;;;;;22.40;58.80;;;;;;3109318;28;19975;-75
2021/08/14 07:50:16;;;;;;;;;;;22.40;58.80;;;;;;3098303;28;19922;-75
2021/08/14 07:51:48;;;;;;;;;;;22.40;58.70;;;;;;3098153;28;19921;-76
2021/08/14 07:53:19;;;;;;;;;;;22.40;58.80;;;;;;3097528;28;19921;-76
2021/08/14 07:54:51;;;;;;;;;;;22.40;58.80;;;;;;3098138;28;19922;-75
2021/08/14 07:56:23;;;;;;;;;;;22.40;58.70;;;;;;3097923;28;19925;-75
2021/08/14 07:57:54;;;;;;;;;;;22.30;58.70;;;;;;3097468;28;19921;-76
2021/08/14 07:59:26;;;;;;;;;;;22.40;58.80;;;;;;3097708;28;19933;-76
2021/08/14 08:00:57;;;;;;;;;;;22.40;58.80;;;;;;3097069;28;19922;-75
2021/08/14 08:02:29;;;;;;;;;;;22.40;58.90;;;;;;3097373;28;19932;-76
2021/08/14 08:04:00;;;;;;;;;;;22.50;58.90;;;;;;3097413;28;19929;-75
2021/08/14 08:05:33;;;;;;;;;;;22.50;58.80;;;;;;3098674;28;19929;-75
2021/08/14 08:07:05;;;;;;;;;;;22.50;58.90;;;;;;3097652;28;19922;-76
2021/08/14 08:08:36;;;;;;;;;;;22.50;58.90;;;;;;3097877;28;19922;-75
2021/08/14 08:10:07;;;;;;;;;;;22.50;58.80;;;;;;3097755;28;20295;-75
2021/08/14 08:11:39;;;;;;;;;;;22.50;58.90;;;;;;3104596;28;20409;-75
2021/08/14 08:13:10;;;;;;;;;;;22.50;58.90;;;;;;3109585;28;19925;-76
2021/08/14 08:14:42;;;;;;;;;;;22.50;58.90;;;;;;3109833;28;19926;-76
2021/08/14 08:16:14;;;;;;;;;;;22.50;58.80;;;;;;3109010;28;19928;-75
2021/08/14 08:17:45;;;;;;;;;;;22.50;58.80;;;;;;3109435;28;19922;-76
2021/08/14 08:19:17;;;;;;;;;;;22.50;58.70;;;;;;3109227;28;20381;-76
2021/08/14 08:20:50;;;;;;;;;;;22.50;58.80;;;;;;3110235;28;20035;-75
2021/08/14 08:22:22;;;;;;;;;;;22.50;58.90;;;;;;3109462;28;20429;-76
2021/08/14 08:23:53;;;;;;;;;;;22.50;58.90;;;;;;3109399;28;20451;-76
2021/08/14 08:25:25;;;;;;;;;;;22.50;58.90;;;;;;3109864;28;19991;-76
2021/08/14 08:26:56;;;;;;;;;;;22.60;58.90;;;;;;3109923;28;19972;-75
2021/08/14 08:28:28;;;;;;;;;;;22.50;59.00;;;;;;3108983;28;19929;-76
2021/08/14 08:29:59;;;;;;;;;;;22.50;59.00;;;;;;3110265;28;19922;-76
2021/08/14 08:31:32;;;;;;;;;;;22.50;59.00;;;;;;3109026;28;19921;-76
2021/08/14 08:33:03;;;;;;;;;;;22.50;59.00;;;;;;3109252;28;19929;-75
2021/08/14 08:34:35;;;;;;;;;;;22.60;59.00;;;;;;3097586;28;19928;-75
2021/08/14 08:36:08;;;;;;;;;;;22.60;59.20;;;;;;3097651;28;19925;-75
2021/08/14 08:37:39;;;;;;;;;;;22.60;59.10;;;;;;3097044;28;19949;-75
2021/08/14 08:39:12;;;;;;;;;;;22.60;59.10;;;;;;3097380;28;19922;-76
2021/08/14 08:40:44;;;;;;;;;;;22.60;59.20;;;;;;3102222;28;19945;-76
2021/08/14 08:42:15;;;;;;;;;;;22.60;59.20;;;;;;3107848;28;20267;-76
2021/08/14 08:43:47;;;;;;;;;;;22.50;59.20;;;;;;3109328;28;19922;-74
2021/08/14 08:45:19;;;;;;;;;;;22.60;59.20;;;;;;3107392;28;19925;-76
2021/08/14 08:46:51;;;;;;;;;;;22.60;59.10;;;;;;3109619;28;20019;-75
2021/08/14 08:48:23;;;;;;;;;;;22.60;59.20;;;;;;3108218;28;20309;-76
2021/08/14 08:49:54;;;;;;;;;;;22.60;59.10;;;;;;3107104;28;19929;-76
2021/08/14 08:51:27;;;;;;;;;;;22.60;59.20;;;;;;3103727;28;19932;-75
2021/08/14 08:52:58;;;;;;;;;;;22.60;59.30;;;;;;3107546;28;20402;-76